Kezdőlap
METAR-TAF:

METAR-TAF

Repülőterek :

Kunming, Kína

földrajzi szélesség: 25-01N, földrajzi hosszúság: 102-41E, magasság: 1892 m

Jelenlegi meteorológiai megfigyelések

A jelentés 47 perccel ezelõtt készült, 19:00 UTC
Különbözõ irányokból fújó szél 2 kt
Hőmérséklet 10°C
Páratartalom 57%
Légköri nyomás 1021 hPa
Látótávolság 10 km, vagy több
felhőtlen 1500 m magasságban, és nincs gomolyfelhõ

METAR: ZPPP 241900Z VRB01MPS CAVOK 10/02 Q1021 NOSIG

Idő: 03:47 (19:47 UTC)

Előrejelzés

A jelentés 6 órával és 35 perccel ezelõtt készült, 13:12 UTC
Az előrejelzés 24-én 18 óra UTC és 25-én 18 óra UTC között érvényes
Északkeleti szél 8 kt
Látótávolság 10 km, vagy több
Szórványos felhőzet 3000 lábon
25-én 02 óra UTC és 25-én 03 óra UTC között fokozatosan kialakuló
Délnyugati szél 23 kt széllökések: 33 kt

TAF: ZPPP 241312Z 2418/2518 04004MPS 9999 SCT030 TX23/2508Z TN06/2423Z BECMG 2502/2503 22012G17MPS

Meteorológiai megfigyelések és előrejelzések több, mint 4000 repülőtéren (METAR és TAF jelentéseket).

A térképen piros és sárga pontok jelzik az elérhető meteorológiai állomásokat.

Mozgassa az egeret a pont fölött, hogy megjelenjen az állomás neve.

Azután kattintson az időjárási megfigyelések és előrejelzések megtekintéséhez.

A térkép megváltoztatása: kattintson a fekete keresztel jelölt zöld gombra ráközelítéshez, a vonallal jelölt zöld gombra távolításhoz, vagy a zöld nyilakra a szomszédos térképek eléréséhez.


METAR-TAF: